createdAt,value
2022-11-09T00:00:20.485Z,0
2022-11-09T00:02:04.176Z,1
2022-11-09T00:03:47.876Z,1
2022-11-09T00:05:31.592Z,0
2022-11-09T00:07:15.303Z,0
2022-11-09T00:08:59.006Z,0
2022-11-09T00:10:42.705Z,0
2022-11-09T00:12:26.404Z,0
2022-11-09T00:14:10.105Z,0
2022-11-09T00:15:53.790Z,0
2022-11-09T00:17:37.497Z,0
2022-11-09T00:19:21.207Z,0
2022-11-09T00:21:04.906Z,0
2022-11-09T00:22:48.616Z,0
2022-11-09T00:24:32.303Z,0
2022-11-09T00:26:16.007Z,0
2022-11-09T00:27:59.723Z,0
2022-11-09T00:29:43.410Z,1
2022-11-09T00:31:27.121Z,1
2022-11-09T00:33:10.820Z,0
2022-11-09T00:34:54.525Z,0
2022-11-09T00:36:38.248Z,0
2022-11-09T00:38:21.932Z,0
2022-11-09T00:40:05.630Z,0
2022-11-09T00:41:49.334Z,0
2022-11-09T00:43:33.066Z,0
2022-11-09T00:45:16.759Z,0
2022-11-09T00:47:00.454Z,0
2022-11-09T00:48:44.161Z,0
2022-11-09T00:50:27.860Z,0
2022-11-09T00:52:11.550Z,0
2022-11-09T00:53:55.256Z,0
2022-11-09T00:55:38.957Z,1
2022-11-09T00:57:22.657Z,0
2022-11-09T00:59:06.354Z,0
2022-11-09T01:00:50.078Z,0
2022-11-09T01:02:33.754Z,0
2022-11-09T01:04:17.474Z,0
2022-11-09T01:06:01.407Z,0
2022-11-09T01:07:44.875Z,0
2022-11-09T01:09:28.573Z,0
2022-11-09T01:11:12.286Z,0
2022-11-09T01:12:55.997Z,0
2022-11-09T01:14:39.670Z,0
2022-11-09T01:16:23.378Z,0
2022-11-09T01:18:07.082Z,0
2022-11-09T01:19:50.801Z,0
2022-11-09T01:21:34.501Z,0
2022-11-09T01:23:18.201Z,0
2022-11-09T01:25:01.896Z,0
2022-11-09T01:26:45.596Z,1
2022-11-09T01:28:29.287Z,0
2022-11-09T01:30:12.999Z,1
2022-11-09T01:31:56.709Z,0
2022-11-09T01:33:40.409Z,0
2022-11-09T01:35:24.096Z,0
2022-11-09T01:37:07.799Z,0
2022-11-09T01:38:51.494Z,1
2022-11-09T01:40:35.205Z,0
2022-11-09T01:42:18.889Z,0
2022-11-09T01:44:02.594Z,0
2022-11-09T01:45:46.302Z,0
2022-11-09T01:47:30.005Z,0
2022-11-09T01:49:13.695Z,0
2022-11-09T01:50:57.394Z,0
2022-11-09T01:52:41.111Z,0
2022-11-09T01:54:24.802Z,0
2022-11-09T01:56:08.502Z,0
2022-11-09T01:57:52.203Z,0
2022-11-09T01:59:35.915Z,0
2022-11-09T02:01:19.637Z,0
2022-11-09T02:03:03.341Z,0
2022-11-09T02:06:30.745Z,0
2022-11-09T02:08:14.457Z,0
2022-11-09T02:09:58.144Z,0
2022-11-09T02:11:41.827Z,0
2022-11-09T02:13:25.553Z,0
2022-11-09T02:15:09.251Z,0
2022-11-09T02:16:52.959Z,0
2022-11-09T02:18:36.647Z,0
2022-11-09T02:20:20.350Z,0
2022-11-09T02:22:04.063Z,0
2022-11-09T02:23:47.750Z,0
2022-11-09T02:25:31.437Z,0
2022-11-09T02:27:15.143Z,1
2022-11-09T02:28:58.839Z,0
2022-11-09T02:30:42.558Z,0
2022-11-09T02:32:26.233Z,0
2022-11-09T02:34:09.952Z,0
2022-11-09T02:35:53.643Z,0
2022-11-09T02:37:37.345Z,0
2022-11-09T02:39:21.058Z,0
2022-11-09T02:41:04.755Z,0
2022-11-09T02:42:48.473Z,0
2022-11-09T02:44:32.180Z,0
2022-11-09T02:47:59.577Z,0
2022-11-09T02:49:43.299Z,0
2022-11-09T02:51:27.010Z,0
2022-11-09T02:53:10.685Z,0
2022-11-09T02:54:54.403Z,0
2022-11-09T02:56:38.087Z,0
2022-11-09T02:58:21.798Z,0
2022-11-09T03:00:05.534Z,1
2022-11-09T03:01:49.195Z,0
2022-11-09T03:03:32.905Z,0
2022-11-09T03:05:16.621Z,0
2022-11-09T03:07:00.306Z,0
2022-11-09T03:08:43.993Z,0
2022-11-09T03:10:27.719Z,0
2022-11-09T03:12:11.407Z,0
2022-11-09T03:13:55.129Z,0
2022-11-09T03:15:38.807Z,0
2022-11-09T03:17:22.516Z,0
2022-11-09T03:19:06.212Z,0
2022-11-09T03:20:49.929Z,0
2022-11-09T03:22:33.606Z,0
2022-11-09T03:24:17.328Z,0
2022-11-09T03:26:01.026Z,0
2022-11-09T03:27:44.733Z,0
2022-11-09T03:29:28.407Z,0
2022-11-09T03:31:12.122Z,0
2022-11-09T03:32:55.844Z,0
2022-11-09T03:34:39.590Z,0
2022-11-09T03:36:23.217Z,0
2022-11-09T03:38:06.924Z,0
2022-11-09T03:39:50.631Z,0
2022-11-09T03:41:34.324Z,0
2022-11-09T03:43:18.034Z,0
2022-11-09T03:45:01.730Z,0
2022-11-09T03:46:45.429Z,0
2022-11-09T03:48:29.136Z,0
2022-11-09T03:50:12.842Z,0
2022-11-09T03:51:56.537Z,0
2022-11-09T03:53:40.243Z,0
2022-11-09T03:57:07.627Z,0
2022-11-09T03:58:51.334Z,0
2022-11-09T04:00:35.038Z,0
2022-11-09T04:02:18.743Z,0
2022-11-09T04:04:02.442Z,0
2022-11-09T04:05:46.127Z,0
2022-11-09T04:07:29.839Z,0
2022-11-09T04:09:13.549Z,0
2022-11-09T04:10:57.230Z,0
2022-11-09T04:12:40.935Z,0
2022-11-09T04:14:24.639Z,0
2022-11-09T04:16:08.351Z,0
2022-11-09T04:17:52.053Z,1
2022-11-09T04:19:35.752Z,0
2022-11-09T04:23:03.177Z,0
2022-11-09T04:24:46.869Z,0
2022-11-09T04:26:30.570Z,0
2022-11-09T04:28:14.294Z,0
2022-11-09T04:29:57.974Z,0
2022-11-09T04:31:41.689Z,0
2022-11-09T04:33:25.390Z,0
2022-11-09T04:35:09.089Z,0
2022-11-09T04:36:52.792Z,0
2022-11-09T04:38:36.496Z,0
2022-11-09T04:40:20.190Z,0
2022-11-09T04:42:03.906Z,0
2022-11-09T04:43:47.600Z,0
2022-11-09T04:45:31.328Z,0
2022-11-09T04:47:14.993Z,0
2022-11-09T04:48:58.703Z,0
2022-11-09T04:50:42.424Z,0
2022-11-09T04:52:26.123Z,0
2022-11-09T04:54:09.812Z,0
2022-11-09T04:55:53.515Z,0
2022-11-09T04:57:37.223Z,0
2022-11-09T04:59:20.916Z,0
2022-11-09T05:01:04.619Z,0
2022-11-09T05:02:48.315Z,0
2022-11-09T05:04:32.016Z,0
2022-11-09T05:06:15.731Z,0
2022-11-09T05:07:59.425Z,0
2022-11-09T05:09:43.112Z,0
2022-11-09T05:11:26.825Z,0
2022-11-09T05:13:10.512Z,0
2022-11-09T05:14:54.236Z,0
2022-11-09T05:16:37.924Z,1
2022-11-09T05:18:21.638Z,0
2022-11-09T05:20:05.345Z,0
2022-11-09T05:21:49.031Z,0
2022-11-09T05:25:16.485Z,0
2022-11-09T05:27:00.138Z,0
2022-11-09T05:28:43.840Z,0
2022-11-09T05:30:27.569Z,0
2022-11-09T05:32:11.276Z,0
2022-11-09T05:33:54.969Z,0
2022-11-09T05:35:38.681Z,0
2022-11-09T05:37:22.376Z,0
2022-11-09T05:39:06.093Z,0
2022-11-09T05:40:49.795Z,0
2022-11-09T05:42:33.502Z,0
2022-11-09T05:44:17.183Z,0
2022-11-09T05:46:00.898Z,0
2022-11-09T05:47:44.597Z,0
2022-11-09T05:49:28.317Z,0
2022-11-09T05:51:11.997Z,0
2022-11-09T05:52:55.714Z,0
2022-11-09T05:54:39.418Z,0
2022-11-09T05:56:23.115Z,0
2022-11-09T05:58:06.799Z,1
2022-11-09T05:59:50.515Z,0
2022-11-09T06:01:34.206Z,0
2022-11-09T06:03:17.911Z,0
2022-11-09T06:05:01.619Z,0
2022-11-09T06:06:45.306Z,0
2022-11-09T06:08:29.022Z,0
2022-11-09T06:10:12.726Z,0
2022-11-09T06:11:56.406Z,0
2022-11-09T06:13:40.134Z,0
2022-11-09T06:15:23.825Z,0
2022-11-09T06:17:07.533Z,1
2022-11-09T06:18:51.210Z,0
2022-11-09T06:20:34.908Z,0
2022-11-09T06:22:18.621Z,0
2022-11-09T06:24:02.337Z,0
2022-11-09T06:25:46.018Z,1
2022-11-09T06:27:29.723Z,1
2022-11-09T06:29:13.434Z,0
2022-11-09T06:30:57.125Z,1
2022-11-09T06:32:40.824Z,1
2022-11-09T06:34:24.527Z,1
2022-11-09T06:36:08.245Z,2
2022-11-09T06:37:51.928Z,2
2022-11-09T06:39:35.616Z,2
2022-11-09T06:41:19.323Z,2
2022-11-09T06:43:03.028Z,3
2022-11-09T06:44:46.735Z,3
2022-11-09T06:46:30.414Z,3
2022-11-09T06:48:14.137Z,4
2022-11-09T06:49:57.836Z,5
2022-11-09T06:51:41.537Z,5
2022-11-09T06:53:25.218Z,4
2022-11-09T06:55:08.943Z,4
2022-11-09T06:56:52.646Z,5
2022-11-09T06:58:36.355Z,6
2022-11-09T07:00:20.037Z,6
2022-11-09T07:02:03.765Z,107
2022-11-09T07:03:47.458Z,145
2022-11-09T07:05:31.151Z,142
2022-11-09T07:07:14.847Z,133
2022-11-09T07:08:58.547Z,134
2022-11-09T07:10:42.297Z,114
2022-11-09T07:12:25.960Z,113
2022-11-09T07:14:09.659Z,146
2022-11-09T07:15:53.352Z,147
2022-11-09T07:17:37.065Z,148
2022-11-09T07:19:20.774Z,154
2022-11-09T07:21:04.465Z,140
2022-11-09T07:22:48.221Z,121
2022-11-09T07:24:31.881Z,111
2022-11-09T07:26:15.589Z,109
2022-11-09T07:27:59.281Z,104
2022-11-09T07:29:42.987Z,106
2022-11-09T07:31:26.699Z,127
2022-11-09T07:33:10.411Z,152
2022-11-09T07:34:54.115Z,155
2022-11-09T07:36:37.804Z,239
2022-11-09T07:40:05.235Z,217
2022-11-09T07:41:48.914Z,178
2022-11-09T07:43:32.615Z,183
2022-11-09T07:45:16.317Z,188
2022-11-09T07:47:00.020Z,90
2022-11-09T07:48:43.747Z,101
2022-11-09T07:50:27.444Z,206
2022-11-09T07:52:11.140Z,226
2022-11-09T07:53:54.840Z,196
2022-11-09T07:55:38.539Z,183
2022-11-09T07:57:22.249Z,211
2022-11-09T07:59:05.946Z,223
2022-11-09T08:00:49.655Z,213
2022-11-09T08:02:33.360Z,216
2022-11-09T08:04:17.063Z,234
2022-11-09T08:06:00.750Z,250
2022-11-09T08:07:44.469Z,342
2022-11-09T08:09:28.151Z,506
2022-11-09T08:11:11.866Z,643
2022-11-09T08:12:55.561Z,775
2022-11-09T08:14:39.279Z,776
2022-11-09T08:16:22.955Z,776
2022-11-09T08:18:06.675Z,717
2022-11-09T08:19:50.384Z,697
2022-11-09T08:21:34.088Z,650
2022-11-09T08:23:17.773Z,568
2022-11-09T08:25:01.477Z,571
2022-11-09T08:26:45.189Z,700
2022-11-09T08:28:28.885Z,776
2022-11-09T08:30:12.607Z,776
2022-11-09T08:31:56.279Z,769
2022-11-09T08:33:39.994Z,724
2022-11-09T08:35:23.686Z,776
2022-11-09T08:37:07.391Z,776
2022-11-09T08:38:51.085Z,775
2022-11-09T08:40:34.793Z,776
2022-11-09T08:42:18.495Z,776
2022-11-09T08:44:02.194Z,775
2022-11-09T08:45:45.904Z,777
2022-11-09T08:47:29.604Z,776
2022-11-09T08:49:13.294Z,775
2022-11-09T08:50:56.994Z,776
2022-11-09T08:52:40.690Z,776
2022-11-09T08:54:24.398Z,776
2022-11-09T08:56:08.136Z,776
2022-11-09T08:57:51.788Z,776
2022-11-09T08:59:35.496Z,776
2022-11-09T09:01:19.202Z,776
2022-11-09T09:03:02.900Z,775
2022-11-09T09:04:46.603Z,776
2022-11-09T09:06:30.303Z,776
2022-11-09T09:08:13.997Z,776
2022-11-09T09:09:57.707Z,776
2022-11-09T09:11:41.395Z,777
2022-11-09T09:13:25.103Z,777
2022-11-09T09:15:08.815Z,776
2022-11-09T09:16:52.502Z,776
2022-11-09T09:18:36.212Z,776
2022-11-09T09:20:19.901Z,776
2022-11-09T09:22:03.596Z,776
2022-11-09T09:23:47.301Z,776
2022-11-09T09:25:31.008Z,776
2022-11-09T09:27:14.718Z,777
2022-11-09T09:28:58.409Z,776
2022-11-09T09:30:42.122Z,776
2022-11-09T09:32:25.793Z,776
2022-11-09T09:34:09.495Z,776
2022-11-09T09:35:53.221Z,776
2022-11-09T09:37:36.927Z,773
2022-11-09T09:39:20.619Z,776
2022-11-09T09:41:04.317Z,776
2022-11-09T09:42:48.023Z,777
2022-11-09T09:44:31.725Z,774
2022-11-09T09:46:15.423Z,777
2022-11-09T09:47:59.139Z,777
2022-11-09T09:49:42.827Z,776
2022-11-09T09:51:26.537Z,774
2022-11-09T09:53:10.237Z,777
2022-11-09T09:54:53.943Z,776
2022-11-09T09:56:37.640Z,776
2022-11-09T09:58:21.342Z,774
2022-11-09T10:00:05.108Z,776
2022-11-09T10:01:48.741Z,777
2022-11-09T10:03:32.444Z,777
2022-11-09T10:05:16.149Z,775
2022-11-09T10:06:59.858Z,777
2022-11-09T10:08:43.553Z,777
2022-11-09T10:10:27.274Z,777
2022-11-09T10:13:54.652Z,777
2022-11-09T10:15:38.374Z,777
2022-11-09T10:17:22.058Z,777
2022-11-09T10:19:05.775Z,774
2022-11-09T10:20:49.464Z,776
2022-11-09T10:22:33.177Z,777
2022-11-09T10:24:16.863Z,777
2022-11-09T10:26:00.567Z,777
2022-11-09T10:27:45.117Z,777
2022-11-09T10:29:27.998Z,777
2022-11-09T10:31:11.703Z,777
2022-11-09T10:32:55.639Z,774
2022-11-09T10:34:39.089Z,778
2022-11-09T10:36:22.791Z,777
2022-11-09T10:38:06.494Z,778
2022-11-09T10:39:50.203Z,777
2022-11-09T10:41:33.895Z,777
2022-11-09T10:43:17.607Z,778
2022-11-09T10:45:01.311Z,777
2022-11-09T10:46:44.996Z,777
2022-11-09T10:48:28.704Z,777
2022-11-09T10:50:12.411Z,778
2022-11-09T10:51:56.123Z,777
2022-11-09T10:53:39.821Z,778
2022-11-09T10:55:23.783Z,777
2022-11-09T10:57:07.222Z,777
2022-11-09T10:58:50.931Z,777
2022-11-09T11:00:34.626Z,777
2022-11-09T11:04:02.028Z,777
2022-11-09T11:05:45.745Z,777
2022-11-09T11:07:29.433Z,777
2022-11-09T11:09:13.131Z,777
2022-11-09T11:10:56.847Z,777
2022-11-09T11:12:40.545Z,778
2022-11-09T11:14:24.237Z,777
2022-11-09T11:16:07.942Z,777
2022-11-09T11:17:51.638Z,778
2022-11-09T11:19:35.352Z,777
2022-11-09T11:21:19.046Z,778
2022-11-09T11:23:02.753Z,777
2022-11-09T11:24:46.458Z,777
2022-11-09T11:26:30.173Z,777
2022-11-09T11:28:13.848Z,777
2022-11-09T11:29:57.564Z,778
2022-11-09T11:31:41.280Z,778
2022-11-09T11:33:24.970Z,776
2022-11-09T11:35:08.661Z,777
2022-11-09T11:36:52.374Z,778
2022-11-09T11:38:36.084Z,777
2022-11-09T11:40:19.791Z,775
2022-11-09T11:42:03.473Z,778
2022-11-09T11:43:47.190Z,777
2022-11-09T11:45:30.889Z,777
2022-11-09T11:47:14.605Z,777
2022-11-09T11:48:58.289Z,777
2022-11-09T11:50:41.982Z,778
2022-11-09T11:52:25.698Z,778
2022-11-09T11:54:09.402Z,778
2022-11-09T11:55:53.110Z,777
2022-11-09T11:57:36.807Z,777
2022-11-09T11:59:20.519Z,777
2022-11-09T12:01:04.225Z,777
2022-11-09T12:02:47.921Z,777
2022-11-09T12:04:31.625Z,777
2022-11-09T12:06:15.349Z,777
2022-11-09T12:07:59.021Z,777
2022-11-09T12:09:42.748Z,777
2022-11-09T12:11:26.444Z,777
2022-11-09T12:13:10.170Z,777
2022-11-09T12:14:53.845Z,777
2022-11-09T12:16:37.560Z,777
2022-11-09T12:18:21.250Z,777
2022-11-09T12:20:04.962Z,777
2022-11-09T12:21:48.646Z,778
2022-11-09T12:23:32.364Z,777
2022-11-09T12:25:16.060Z,777
2022-11-09T12:26:59.780Z,777
2022-11-09T12:28:43.454Z,778
2022-11-09T12:30:27.187Z,777
2022-11-09T12:32:10.873Z,777
2022-11-09T12:33:54.580Z,778
2022-11-09T12:35:38.253Z,777
2022-11-09T12:37:21.977Z,777
2022-11-09T12:39:05.676Z,777
2022-11-09T12:40:49.375Z,777
2022-11-09T12:42:33.062Z,777
2022-11-09T12:44:16.786Z,777
2022-11-09T12:46:00.493Z,778
2022-11-09T12:47:44.183Z,777
2022-11-09T12:49:27.884Z,778
2022-11-09T12:51:11.585Z,776
2022-11-09T12:52:55.303Z,777
2022-11-09T12:54:38.997Z,777
2022-11-09T12:56:22.701Z,777
2022-11-09T12:58:06.397Z,778
2022-11-09T12:59:50.107Z,777
2022-11-09T13:01:33.806Z,777
2022-11-09T13:03:17.503Z,777
2022-11-09T13:05:01.207Z,777
2022-11-09T13:06:44.914Z,777
2022-11-09T13:08:28.620Z,777
2022-11-09T13:10:12.308Z,778
2022-11-09T13:11:56.002Z,777
2022-11-09T13:13:39.714Z,778
2022-11-09T13:15:23.415Z,778
2022-11-09T13:17:07.111Z,778
2022-11-09T13:18:50.825Z,778
2022-11-09T13:20:34.525Z,777
2022-11-09T13:22:18.220Z,778
2022-11-09T13:24:01.922Z,777
2022-11-09T13:25:45.729Z,777
2022-11-09T13:27:29.315Z,777
2022-11-09T13:29:13.030Z,777
2022-11-09T13:30:56.746Z,777
2022-11-09T13:32:40.524Z,777
2022-11-09T13:34:24.150Z,777
2022-11-09T13:36:07.849Z,777
2022-11-09T13:37:51.546Z,777
2022-11-09T13:39:35.397Z,777
2022-11-09T13:43:02.891Z,775
2022-11-09T13:44:46.357Z,778
2022-11-09T13:46:30.241Z,777
2022-11-09T13:48:13.881Z,777
2022-11-09T13:49:57.681Z,778
2022-11-09T13:51:41.347Z,777
2022-11-09T13:53:25.067Z,777
2022-11-09T13:55:08.777Z,777
2022-11-09T13:56:52.289Z,777
2022-11-09T13:58:35.978Z,777
2022-11-09T14:00:19.880Z,777
2022-11-09T14:02:03.464Z,777
2022-11-09T14:03:47.106Z,777
2022-11-09T14:05:30.819Z,751
2022-11-09T14:07:14.725Z,717
2022-11-09T14:08:58.434Z,688
2022-11-09T14:10:42.168Z,656
2022-11-09T14:12:25.773Z,621
2022-11-09T14:14:09.459Z,586
2022-11-09T14:15:53.238Z,572
2022-11-09T14:17:36.905Z,554
2022-11-09T14:19:20.546Z,545
2022-11-09T14:21:04.331Z,547
2022-11-09T14:22:47.935Z,548
2022-11-09T14:24:31.537Z,555
2022-11-09T14:26:15.397Z,557
2022-11-09T14:27:59.124Z,555
2022-11-09T14:29:42.811Z,543
2022-11-09T14:31:26.538Z,521
2022-11-09T14:33:10.229Z,497
2022-11-09T14:34:53.913Z,478
2022-11-09T14:36:37.507Z,463
2022-11-09T14:38:21.190Z,453
2022-11-09T14:40:05.046Z,449
2022-11-09T14:41:48.705Z,446
2022-11-09T14:43:32.417Z,439
2022-11-09T14:45:16.097Z,424
2022-11-09T14:46:59.792Z,399
2022-11-09T14:48:43.496Z,378
2022-11-09T14:50:27.264Z,365
2022-11-09T14:52:10.901Z,360
2022-11-09T14:53:54.444Z,360
2022-11-09T14:55:38.324Z,357
2022-11-09T14:57:21.865Z,351
2022-11-09T14:59:05.567Z,337
2022-11-09T15:00:49.274Z,318
2022-11-09T15:02:32.975Z,300
2022-11-09T15:04:16.824Z,287
2022-11-09T15:06:00.367Z,281
2022-11-09T15:07:44.090Z,277
2022-11-09T15:09:27.913Z,270
2022-11-09T15:11:11.668Z,257
2022-11-09T15:12:55.384Z,237
2022-11-09T15:14:38.885Z,215
2022-11-09T15:16:22.876Z,196
2022-11-09T15:18:06.292Z,178
2022-11-09T15:19:50.158Z,159
2022-11-09T15:21:33.960Z,139
2022-11-09T15:23:17.573Z,120
2022-11-09T15:25:01.139Z,107
2022-11-09T15:26:45.023Z,92
2022-11-09T15:28:28.681Z,80
2022-11-09T15:30:12.422Z,71
2022-11-09T15:31:56.083Z,64
2022-11-09T15:33:39.786Z,59
2022-11-09T15:35:23.336Z,52
2022-11-09T15:37:07.210Z,43
2022-11-09T15:38:50.908Z,37
2022-11-09T15:40:34.627Z,31
2022-11-09T15:42:18.335Z,28
2022-11-09T15:44:01.944Z,24
2022-11-09T15:45:45.700Z,20
2022-11-09T15:47:29.244Z,18
2022-11-09T15:49:12.929Z,17
2022-11-09T15:50:56.805Z,16
2022-11-09T15:52:40.506Z,14
2022-11-09T15:54:24.264Z,12
2022-11-09T15:56:07.884Z,11
2022-11-09T15:57:51.439Z,9
2022-11-09T15:59:35.214Z,8
2022-11-09T16:01:18.991Z,7
2022-11-09T16:03:02.550Z,5
2022-11-09T16:04:46.237Z,4
2022-11-09T16:06:29.972Z,3
2022-11-09T16:08:13.773Z,3
2022-11-09T16:09:57.447Z,3
2022-11-09T16:11:41.052Z,2
2022-11-09T16:13:24.740Z,2
2022-11-09T16:15:08.434Z,1
2022-11-09T16:16:52.192Z,2
2022-11-09T16:18:35.841Z,1
2022-11-09T16:20:19.546Z,1
2022-11-09T16:22:03.231Z,1
2022-11-09T16:23:46.964Z,34
2022-11-09T16:25:30.649Z,35
2022-11-09T16:27:14.340Z,34
2022-11-09T16:28:58.197Z,34
2022-11-09T16:30:41.756Z,32
2022-11-09T16:32:25.573Z,34
2022-11-09T16:34:09.154Z,28
2022-11-09T16:35:52.840Z,28
2022-11-09T16:37:36.557Z,29
2022-11-09T16:39:20.403Z,29
2022-11-09T16:41:03.944Z,30
2022-11-09T16:42:47.658Z,36
2022-11-09T16:44:31.366Z,2
2022-11-09T16:46:15.066Z,349
2022-11-09T16:47:58.805Z,345
2022-11-09T16:49:42.546Z,346
2022-11-09T16:51:26.151Z,347
2022-11-09T16:53:09.874Z,347
2022-11-09T16:54:53.557Z,347
2022-11-09T16:56:37.250Z,344
2022-11-09T16:58:20.973Z,297
2022-11-09T17:00:04.676Z,724
2022-11-09T17:01:48.357Z,309
2022-11-09T17:03:32.067Z,345
2022-11-09T17:05:15.754Z,413
2022-11-09T17:06:59.472Z,319
2022-11-09T17:08:43.157Z,754
2022-11-09T17:10:26.852Z,387
2022-11-09T17:12:10.561Z,308
2022-11-09T17:13:54.316Z,373
2022-11-09T17:17:21.668Z,776
2022-11-09T17:19:05.382Z,622
2022-11-09T17:20:49.081Z,409
2022-11-09T17:22:32.872Z,385
2022-11-09T17:24:16.471Z,437
2022-11-09T17:26:00.226Z,357
2022-11-09T17:27:43.890Z,437
2022-11-09T17:29:27.562Z,412
2022-11-09T17:31:11.277Z,429
2022-11-09T17:32:54.988Z,477
2022-11-09T17:34:38.705Z,421
2022-11-09T17:36:22.377Z,327
2022-11-09T17:38:06.094Z,776
2022-11-09T17:39:49.792Z,776
2022-11-09T17:41:33.488Z,776
2022-11-09T17:43:17.166Z,777
2022-11-09T17:45:00.886Z,777
2022-11-09T17:46:44.596Z,777
2022-11-09T17:48:28.286Z,777
2022-11-09T17:50:12.000Z,777
2022-11-09T17:51:55.694Z,777
2022-11-09T17:53:39.381Z,777
2022-11-09T17:55:23.117Z,777
2022-11-09T17:57:06.783Z,777
2022-11-09T17:58:50.497Z,777
2022-11-09T18:00:34.186Z,777
2022-11-09T18:02:17.904Z,777
2022-11-09T18:04:01.606Z,777
2022-11-09T18:05:45.302Z,776
2022-11-09T18:07:28.992Z,775
2022-11-09T18:09:12.695Z,776
2022-11-09T18:10:56.385Z,777
2022-11-09T18:12:40.099Z,777
2022-11-09T18:14:23.802Z,776
2022-11-09T18:16:07.499Z,777
2022-11-09T18:17:51.237Z,777
2022-11-09T18:19:34.925Z,777
2022-11-09T18:21:18.603Z,776
2022-11-09T18:23:02.312Z,777
2022-11-09T18:24:46.004Z,777
2022-11-09T18:26:29.799Z,776
2022-11-09T18:28:13.405Z,776
2022-11-09T18:29:57.116Z,777
2022-11-09T18:31:40.792Z,777
2022-11-09T18:33:24.493Z,777
2022-11-09T18:35:08.204Z,777
2022-11-09T18:36:51.918Z,774
2022-11-09T18:38:35.603Z,777
2022-11-09T18:40:19.301Z,777
2022-11-09T18:42:03.022Z,777
2022-11-09T18:43:46.721Z,777
2022-11-09T18:45:30.412Z,777
2022-11-09T18:47:14.116Z,776
2022-11-09T18:48:57.829Z,777
2022-11-09T18:50:41.535Z,777
2022-11-09T18:52:25.234Z,776
2022-11-09T18:54:08.937Z,776
2022-11-09T18:55:52.626Z,776
2022-11-09T18:57:36.346Z,776
2022-11-09T18:59:20.028Z,776
2022-11-09T19:01:03.753Z,777
2022-11-09T19:02:47.438Z,776
2022-11-09T19:04:31.153Z,777
2022-11-09T19:06:14.859Z,776
2022-11-09T19:07:58.548Z,777
2022-11-09T19:09:42.253Z,777
2022-11-09T19:11:25.960Z,776
2022-11-09T19:13:09.679Z,776
2022-11-09T19:14:53.366Z,776
2022-11-09T19:16:37.074Z,777
2022-11-09T19:18:20.766Z,776
2022-11-09T19:20:04.469Z,777
2022-11-09T19:21:48.167Z,777
2022-11-09T19:23:31.872Z,776
2022-11-09T19:25:15.569Z,777
2022-11-09T19:26:59.258Z,777
2022-11-09T19:28:42.990Z,777
2022-11-09T19:30:26.685Z,777
2022-11-09T19:32:10.384Z,776
2022-11-09T19:33:54.077Z,777
2022-11-09T19:35:37.780Z,776
2022-11-09T19:37:21.520Z,777
2022-11-09T19:39:05.198Z,777
2022-11-09T19:40:48.958Z,777
2022-11-09T19:42:32.621Z,776
2022-11-09T19:44:16.365Z,777
2022-11-09T19:45:59.992Z,777
2022-11-09T19:47:43.718Z,776
2022-11-09T19:49:27.412Z,777
2022-11-09T19:51:11.095Z,776
2022-11-09T19:52:54.874Z,777
2022-11-09T19:54:38.532Z,777
2022-11-09T19:56:22.196Z,776
2022-11-09T19:58:05.903Z,778
2022-11-09T19:59:49.594Z,776
2022-11-09T20:01:33.301Z,776
2022-11-09T20:03:17.092Z,777
2022-11-09T20:05:00.695Z,776
2022-11-09T20:06:44.415Z,776
2022-11-09T20:08:28.098Z,777
2022-11-09T20:10:11.809Z,777
2022-11-09T20:11:55.519Z,776
2022-11-09T20:13:39.210Z,774
2022-11-09T20:15:22.894Z,777
2022-11-09T20:17:06.607Z,777
2022-11-09T20:18:50.305Z,776
2022-11-09T20:20:34.039Z,777
2022-11-09T20:22:17.715Z,776
2022-11-09T20:24:01.414Z,777
2022-11-09T20:25:45.113Z,777
2022-11-09T20:27:28.835Z,777
2022-11-09T20:29:12.510Z,777
2022-11-09T20:30:56.249Z,777
2022-11-09T20:32:39.920Z,777
2022-11-09T20:34:23.677Z,777
2022-11-09T20:36:07.321Z,777
2022-11-09T20:37:51.021Z,777
2022-11-09T20:39:34.731Z,776
2022-11-09T20:41:18.416Z,777
2022-11-09T20:43:02.134Z,776
2022-11-09T20:44:45.845Z,777
2022-11-09T20:46:29.530Z,776
2022-11-09T20:48:13.227Z,777
2022-11-09T20:49:57.019Z,777
2022-11-09T20:51:40.633Z,3
2022-11-09T20:53:24.327Z,2
2022-11-09T20:55:08.051Z,2
2022-11-09T20:56:51.730Z,3
2022-11-09T20:58:35.412Z,2
2022-11-09T21:00:19.140Z,3
2022-11-09T21:02:02.828Z,2
2022-11-09T21:03:46.541Z,3
2022-11-09T21:05:30.236Z,1
2022-11-09T21:07:13.928Z,3
2022-11-09T21:08:57.679Z,2
2022-11-09T21:10:41.338Z,3
2022-11-09T21:12:25.030Z,3
2022-11-09T21:14:08.783Z,2
2022-11-09T21:15:52.456Z,3
2022-11-09T21:17:36.135Z,3
2022-11-09T21:19:19.844Z,2
2022-11-09T21:21:03.544Z,2
2022-11-09T21:22:47.251Z,2
2022-11-09T21:24:30.982Z,3
2022-11-09T21:26:14.650Z,3
2022-11-09T21:27:58.353Z,2
2022-11-09T21:29:42.072Z,2
2022-11-09T21:31:25.786Z,3
2022-11-09T21:33:09.464Z,3
2022-11-09T21:34:53.171Z,2
2022-11-09T21:36:36.866Z,2
2022-11-09T21:38:20.578Z,3
2022-11-09T21:40:04.309Z,2
2022-11-09T21:41:48.065Z,2
2022-11-09T21:43:31.699Z,2
2022-11-09T21:45:15.384Z,3
2022-11-09T21:46:59.086Z,1
2022-11-09T21:48:42.786Z,3
2022-11-09T21:50:26.507Z,3
2022-11-09T21:52:10.174Z,2
2022-11-09T21:53:53.877Z,3
2022-11-09T21:55:37.591Z,3
2022-11-09T21:57:21.283Z,3
2022-11-09T21:59:04.992Z,2
2022-11-09T22:00:48.696Z,2
2022-11-09T22:02:32.396Z,3
2022-11-09T22:04:16.092Z,3
2022-11-09T22:05:59.784Z,3
2022-11-09T22:07:43.499Z,3
2022-11-09T22:09:27.194Z,3
2022-11-09T22:11:10.904Z,4
2022-11-09T22:12:54.590Z,3
2022-11-09T22:14:38.305Z,3
2022-11-09T22:16:22.006Z,2
2022-11-09T22:18:05.726Z,2
2022-11-09T22:19:49.405Z,3
2022-11-09T22:21:33.117Z,3
2022-11-09T22:23:16.819Z,3
2022-11-09T22:25:00.511Z,2
2022-11-09T22:26:44.224Z,3
2022-11-09T22:28:27.915Z,2
2022-11-09T22:30:11.622Z,3
2022-11-09T22:31:55.312Z,2
2022-11-09T22:33:39.028Z,4
2022-11-09T22:35:22.720Z,2
2022-11-09T22:37:06.465Z,3
2022-11-09T22:38:50.120Z,2
2022-11-09T22:40:33.827Z,2
2022-11-09T22:42:17.521Z,776
2022-11-09T22:44:01.225Z,2
2022-11-09T22:45:44.931Z,2
2022-11-09T22:47:28.640Z,1
2022-11-09T22:49:12.331Z,1
2022-11-09T22:50:56.034Z,1
2022-11-09T22:52:39.736Z,1
2022-11-09T22:54:23.450Z,1
2022-11-09T22:56:07.136Z,1
2022-11-09T22:57:50.847Z,2
2022-11-09T22:59:34.527Z,2
2022-11-09T23:01:18.250Z,2
2022-11-09T23:03:01.964Z,1
2022-11-09T23:04:45.641Z,1
2022-11-09T23:06:29.423Z,1
2022-11-09T23:08:13.049Z,1
2022-11-09T23:09:56.769Z,1
2022-11-09T23:11:40.468Z,1
2022-11-09T23:13:24.176Z,2
2022-11-09T23:15:07.877Z,1
2022-11-09T23:16:51.574Z,1
2022-11-09T23:18:35.292Z,1
2022-11-09T23:20:18.998Z,2
2022-11-09T23:22:02.722Z,1
2022-11-09T23:23:46.378Z,1
2022-11-09T23:25:30.087Z,1
2022-11-09T23:27:13.797Z,0
2022-11-09T23:28:57.501Z,2
2022-11-09T23:30:41.205Z,1
2022-11-09T23:32:24.887Z,1
2022-11-09T23:34:08.619Z,1
2022-11-09T23:35:52.307Z,1
2022-11-09T23:37:36.009Z,1
2022-11-09T23:39:19.691Z,0
2022-11-09T23:41:03.416Z,1
2022-11-09T23:42:47.103Z,1
2022-11-09T23:44:30.788Z,1
2022-11-09T23:46:14.519Z,2
2022-11-09T23:49:41.911Z,1
2022-11-09T23:51:25.607Z,1
2022-11-09T23:53:09.315Z,1
2022-11-09T23:54:53.027Z,1
2022-11-09T23:56:36.709Z,1
2022-11-09T23:58:20.466Z,1
